GLO1973 SBVT-SBGL
Flight info
| Callsign | GLO1973 |
|---|---|
| Flight time | 0h 56m |
| Altitude | 30000 |
| Route | USVAG UN401 MOLSU |
| Aircraft | B738/M-SDFGIKLORWXY/LB1 |
Departure
| Time | 2026-04-16 11:44 |
|---|---|
| Airport | Eurico de Aguiar Salles International Airport (SBVT) |
Arrival
| Time | 2026-04-16 12:40 |
|---|---|
| Airport | Rio Galeão – Tom Jobim International Airport (SBGL) |
| Time | Latitude | Longitude | Altitude | Speed | Heading |
|---|---|---|---|---|---|
| 2026-04-16 11:28 | -20.26459 | -40.28177 | 20 ft | 0 kts | 262° |
| 2026-04-16 11:29 | -20.26459 | -40.28179 | 20 ft | 0 kts | 262° |
| 2026-04-16 11:35 | -20.26459 | -40.28177 | 20 ft | 2 kts | 262° |
| 2026-04-16 11:35 | -20.26457 | -40.28150 | 20 ft | 4 kts | 274° |
| 2026-04-16 11:35 | -20.26463 | -40.28123 | 21 ft | 4 kts | 298° |
| 2026-04-16 11:35 | -20.26479 | -40.28105 | 20 ft | 3 kts | 347° |
| 2026-04-16 11:36 | -20.26483 | -40.28104 | 20 ft | 0 kts | 352° |
| 2026-04-16 11:39 | -20.26476 | -40.28104 | 20 ft | 3 kts | 355° |
| 2026-04-16 11:39 | -20.26433 | -40.28090 | 20 ft | 10 kts | 21° |
| 2026-04-16 11:39 | -20.26347 | -40.28062 | 20 ft | 15 kts | 1° |
| 2026-04-16 11:40 | -20.26248 | -40.28075 | 22 ft | 14 kts | 352° |
| 2026-04-16 11:40 | -20.26154 | -40.28089 | 20 ft | 14 kts | 352° |
| 2026-04-16 11:40 | -20.26042 | -40.28105 | 21 ft | 19 kts | 352° |
| 2026-04-16 11:40 | -20.25903 | -40.28125 | 20 ft | 20 kts | 352° |
| 2026-04-16 11:41 | -20.25765 | -40.28144 | 20 ft | 20 kts | 353° |
| 2026-04-16 11:41 | -20.25633 | -40.28166 | 20 ft | 19 kts | 351° |
| 2026-04-16 11:41 | -20.25503 | -40.28182 | 20 ft | 18 kts | 354° |
| 2026-04-16 11:41 | -20.25378 | -40.28200 | 20 ft | 18 kts | 349° |
| 2026-04-16 11:42 | -20.25271 | -40.28219 | 18 ft | 15 kts | 351° |
| 2026-04-16 11:42 | -20.25169 | -40.28234 | 18 ft | 14 kts | 355° |
| 2026-04-16 11:42 | -20.25077 | -40.28211 | 20 ft | 14 kts | 33° |
| 2026-04-16 11:42 | -20.24997 | -40.28158 | 22 ft | 13 kts | 29° |
| 2026-04-16 11:43 | -20.24930 | -40.28112 | 20 ft | 9 kts | 59° |
| 2026-04-16 11:43 | -20.24944 | -40.28092 | 19 ft | 3 kts | 172° |
| 2026-04-16 11:43 | -20.25121 | -40.28065 | 19 ft | 62 kts | 172° |
| 2026-04-16 11:43 | -20.25794 | -40.27965 | 27 ft | 131 kts | 172° |
| 2026-04-16 11:44 | -20.26872 | -40.27833 | 238 ft | 168 kts | 174° |
| 2026-04-16 11:44 | -20.28042 | -40.27689 | 1053 ft | 171 kts | 175° |
| 2026-04-16 11:44 | -20.29231 | -40.27528 | 1900 ft | 171 kts | 173° |
| 2026-04-16 11:44 | -20.30505 | -40.27320 | 2271 ft | 200 kts | 173° |
| 2026-04-16 11:45 | -20.31949 | -40.27089 | 2488 ft | 224 kts | 172° |
| 2026-04-16 11:45 | -20.33557 | -40.26844 | 2757 ft | 245 kts | 173° |
| 2026-04-16 11:45 | -20.35295 | -40.26592 | 3257 ft | 257 kts | 177° |
| 2026-04-16 11:45 | -20.37037 | -40.26967 | 4060 ft | 260 kts | 207° |
| 2026-04-16 11:46 | -20.38389 | -40.28241 | 4890 ft | 265 kts | 235° |
| 2026-04-16 11:46 | -20.39067 | -40.30082 | 5658 ft | 273 kts | 258° |
| 2026-04-16 11:46 | -20.39270 | -40.32111 | 6455 ft | 278 kts | 264° |
| 2026-04-16 11:46 | -20.39383 | -40.34184 | 7232 ft | 282 kts | 265° |
| 2026-04-16 11:47 | -20.39483 | -40.36296 | 8015 ft | 286 kts | 264° |
| 2026-04-16 11:47 | -20.39591 | -40.38428 | 8767 ft | 290 kts | 264° |
| 2026-04-16 11:47 | -20.39709 | -40.40585 | 9504 ft | 294 kts | 264° |
| 2026-04-16 11:47 | -20.39834 | -40.42760 | 9900 ft | 294 kts | 264° |
| 2026-04-16 11:48 | -20.39966 | -40.44954 | 10008 ft | 298 kts | 264° |
| 2026-04-16 11:48 | -20.40101 | -40.47158 | 10018 ft | 297 kts | 264° |
| 2026-04-16 11:48 | -20.40235 | -40.49348 | 10011 ft | 295 kts | 264° |
| 2026-04-16 11:48 | -20.40369 | -40.51505 | 10015 ft | 296 kts | 264° |
| 2026-04-16 11:49 | -20.40504 | -40.53695 | 10011 ft | 296 kts | 264° |
| 2026-04-16 11:49 | -20.40641 | -40.55888 | 10004 ft | 296 kts | 264° |
| 2026-04-16 11:49 | -20.40776 | -40.58076 | 10008 ft | 296 kts | 264° |
| 2026-04-16 11:49 | -20.41175 | -40.60212 | 10002 ft | 292 kts | 243° |
| 2026-04-16 11:50 | -20.42335 | -40.61971 | 10052 ft | 295 kts | 220° |
| 2026-04-16 11:50 | -20.44027 | -40.63340 | 10242 ft | 315 kts | 214° |
| 2026-04-16 11:50 | -20.45870 | -40.64692 | 10690 ft | 326 kts | 213° |
| 2026-04-16 11:50 | -20.47764 | -40.66061 | 11374 ft | 330 kts | 213° |
| 2026-04-16 11:51 | -20.49668 | -40.67443 | 12138 ft | 332 kts | 214° |
| 2026-04-16 11:51 | -20.51586 | -40.68844 | 12855 ft | 335 kts | 214° |
| 2026-04-16 11:51 | -20.53512 | -40.70259 | 13600 ft | 337 kts | 214° |
| 2026-04-16 11:51 | -20.55426 | -40.71671 | 14308 ft | 340 kts | 215° |
| 2026-04-16 11:52 | -20.57406 | -40.73134 | 15000 ft | 344 kts | 215° |
| 2026-04-16 11:52 | -20.59375 | -40.74592 | 15712 ft | 346 kts | 215° |
| 2026-04-16 11:52 | -20.61357 | -40.76060 | 16416 ft | 348 kts | 215° |
| 2026-04-16 11:52 | -20.63330 | -40.77522 | 17087 ft | 351 kts | 216° |
| 2026-04-16 11:53 | -20.65345 | -40.79017 | 17703 ft | 354 kts | 216° |
| 2026-04-16 11:53 | -20.67378 | -40.80525 | 18260 ft | 358 kts | 216° |
| 2026-04-16 11:53 | -20.69417 | -40.82061 | 18882 ft | 359 kts | 219° |
| 2026-04-16 11:53 | -20.71221 | -40.83921 | 19454 ft | 361 kts | 228° |
| 2026-04-16 11:54 | -20.72887 | -40.85941 | 20052 ft | 363 kts | 229° |
| 2026-04-16 11:54 | -20.74551 | -40.87996 | 20596 ft | 367 kts | 228° |
| 2026-04-16 11:54 | -20.76229 | -40.90054 | 21189 ft | 368 kts | 228° |
| 2026-04-16 11:54 | -20.77927 | -40.92111 | 21750 ft | 369 kts | 227° |
| 2026-04-16 11:55 | -20.79641 | -40.94169 | 22282 ft | 371 kts | 227° |
| 2026-04-16 11:55 | -20.81366 | -40.96229 | 22785 ft | 374 kts | 226° |
| 2026-04-16 11:55 | -20.83108 | -40.98305 | 23246 ft | 377 kts | 226° |
| 2026-04-16 11:55 | -20.84843 | -41.00374 | 23735 ft | 378 kts | 226° |
| 2026-04-16 11:56 | -20.86626 | -41.02503 | 24222 ft | 380 kts | 226° |
| 2026-04-16 11:56 | -20.88369 | -41.04593 | 24685 ft | 382 kts | 226° |
| 2026-04-16 11:56 | -20.90140 | -41.06721 | 25109 ft | 384 kts | 226° |
| 2026-04-16 11:56 | -20.91923 | -41.08864 | 25522 ft | 387 kts | 227° |
| 2026-04-16 11:57 | -20.93717 | -41.11023 | 25926 ft | 389 kts | 227° |
| 2026-04-16 11:57 | -20.95522 | -41.13195 | 26311 ft | 392 kts | 227° |
| 2026-04-16 11:57 | -20.97339 | -41.15382 | 26717 ft | 394 kts | 227° |
| 2026-04-16 11:57 | -20.99162 | -41.17577 | 27096 ft | 396 kts | 227° |
| 2026-04-16 11:58 | -21.01000 | -41.19790 | 27439 ft | 398 kts | 227° |
| 2026-04-16 11:58 | -21.02847 | -41.22016 | 27803 ft | 400 kts | 227° |
| 2026-04-16 11:58 | -21.04699 | -41.24248 | 28160 ft | 403 kts | 227° |
| 2026-04-16 11:58 | -21.06569 | -41.26503 | 28499 ft | 405 kts | 227° |
| 2026-04-16 11:59 | -21.08444 | -41.28766 | 28838 ft | 407 kts | 227° |
| 2026-04-16 11:59 | -21.10326 | -41.31036 | 29176 ft | 409 kts | 227° |
| 2026-04-16 11:59 | -21.12219 | -41.33322 | 29474 ft | 411 kts | 228° |
| 2026-04-16 11:59 | -21.14100 | -41.35595 | 29769 ft | 413 kts | 228° |
| 2026-04-16 12:00 | -21.16011 | -41.37904 | 30021 ft | 415 kts | 228° |
| 2026-04-16 12:00 | -21.19766 | -41.42446 | 30002 ft | 396 kts | 228° |
| 2026-04-16 12:01 | -21.23392 | -41.46834 | 30026 ft | 392 kts | 228° |
| 2026-04-16 12:01 | -21.27024 | -41.51232 | 30024 ft | 395 kts | 228° |
| 2026-04-16 12:02 | -21.32481 | -41.57840 | 30020 ft | 397 kts | 228° |
| 2026-04-16 12:02 | -21.36151 | -41.62276 | 30027 ft | 397 kts | 228° |
| 2026-04-16 12:03 | -21.39815 | -41.66710 | 30010 ft | 397 kts | 228° |
| 2026-04-16 12:03 | -21.43486 | -41.71157 | 30019 ft | 397 kts | 228° |
| 2026-04-16 12:04 | -21.47139 | -41.75588 | 30028 ft | 396 kts | 227° |
| 2026-04-16 12:04 | -21.50792 | -41.80020 | 30018 ft | 396 kts | 227° |
| 2026-04-16 12:05 | -21.54423 | -41.84431 | 30026 ft | 396 kts | 227° |
| 2026-04-16 12:05 | -21.58073 | -41.88868 | 30024 ft | 397 kts | 227° |
| 2026-04-16 12:06 | -21.61730 | -41.93318 | 30030 ft | 397 kts | 227° |
| 2026-04-16 12:06 | -21.65395 | -41.97781 | 30034 ft | 398 kts | 227° |
| 2026-04-16 12:07 | -21.69062 | -42.02251 | 30025 ft | 398 kts | 227° |
| 2026-04-16 12:07 | -21.72711 | -42.06702 | 30029 ft | 399 kts | 228° |
| 2026-04-16 12:08 | -21.76383 | -42.11186 | 30027 ft | 399 kts | 228° |
| 2026-04-16 12:08 | -21.80056 | -42.15673 | 30035 ft | 399 kts | 229° |
| 2026-04-16 12:09 | -21.83776 | -42.20146 | 30030 ft | 403 kts | 224° |
| 2026-04-16 12:09 | -21.86066 | -42.21905 | 30052 ft | 406 kts | 211° |
| 2026-04-16 12:09 | -21.88508 | -42.23366 | 30041 ft | 408 kts | 210° |
| 2026-04-16 12:10 | -21.93597 | -42.26326 | 30050 ft | 422 kts | 210° |
| 2026-04-16 12:10 | -21.98804 | -42.29429 | 29716 ft | 431 kts | 211° |
| 2026-04-16 12:11 | -22.01429 | -42.31014 | 29465 ft | 431 kts | 211° |
| 2026-04-16 12:11 | -22.04030 | -42.32588 | 29178 ft | 425 kts | 211° |
| 2026-04-16 12:11 | -22.06568 | -42.34124 | 28714 ft | 421 kts | 211° |
| 2026-04-16 12:11 | -22.08888 | -42.36006 | 28189 ft | 415 kts | 227° |
| 2026-04-16 12:12 | -22.10616 | -42.38465 | 27789 ft | 408 kts | 240° |
| 2026-04-16 12:12 | -22.11705 | -42.41267 | 27431 ft | 404 kts | 252° |
| 2026-04-16 12:12 | -22.12427 | -42.44163 | 27077 ft | 398 kts | 254° |
| 2026-04-16 12:12 | -22.13096 | -42.47074 | 26734 ft | 402 kts | 254° |
| 2026-04-16 12:13 | -22.13765 | -42.50020 | 26359 ft | 405 kts | 254° |
| 2026-04-16 12:13 | -22.14435 | -42.52929 | 26004 ft | 403 kts | 253° |
| 2026-04-16 12:13 | -22.15119 | -42.55848 | 25618 ft | 400 kts | 253° |
| 2026-04-16 12:13 | -22.15806 | -42.58746 | 25269 ft | 397 kts | 253° |
| 2026-04-16 12:14 | -22.16493 | -42.61615 | 24926 ft | 394 kts | 252° |
| 2026-04-16 12:14 | -22.17179 | -42.64472 | 24570 ft | 391 kts | 252° |
| 2026-04-16 12:14 | -22.17861 | -42.67309 | 24213 ft | 389 kts | 252° |
| 2026-04-16 12:14 | -22.18538 | -42.70129 | 23872 ft | 387 kts | 252° |
| 2026-04-16 12:15 | -22.19210 | -42.72933 | 23528 ft | 385 kts | 252° |
| 2026-04-16 12:15 | -22.19880 | -42.75725 | 23192 ft | 384 kts | 252° |
| 2026-04-16 12:15 | -22.20547 | -42.78512 | 22832 ft | 383 kts | 252° |
| 2026-04-16 12:15 | -22.21212 | -42.81290 | 22493 ft | 382 kts | 253° |
| 2026-04-16 12:16 | -22.21875 | -42.84064 | 22150 ft | 381 kts | 253° |
| 2026-04-16 12:16 | -22.22537 | -42.86837 | 21817 ft | 380 kts | 253° |
| 2026-04-16 12:16 | -22.23187 | -42.89563 | 21505 ft | 379 kts | 253° |
| 2026-04-16 12:16 | -22.23842 | -42.92313 | 21193 ft | 378 kts | 253° |
| 2026-04-16 12:17 | -22.24495 | -42.95055 | 20872 ft | 377 kts | 253° |
| 2026-04-16 12:17 | -22.25147 | -42.97793 | 20564 ft | 376 kts | 253° |
| 2026-04-16 12:17 | -22.25796 | -43.00522 | 20246 ft | 375 kts | 253° |
| 2026-04-16 12:17 | -22.26444 | -43.03248 | 19898 ft | 375 kts | 253° |
| 2026-04-16 12:18 | -22.27094 | -43.05986 | 19474 ft | 376 kts | 254° |
| 2026-04-16 12:18 | -22.27742 | -43.08719 | 19054 ft | 374 kts | 254° |
| 2026-04-16 12:18 | -22.28385 | -43.11432 | 18646 ft | 371 kts | 254° |
| 2026-04-16 12:18 | -22.29024 | -43.14131 | 18246 ft | 370 kts | 254° |
| 2026-04-16 12:19 | -22.29445 | -43.15908 | 17973 ft | 368 kts | 254° |
| 2026-04-16 12:19 | -22.30074 | -43.18570 | 17571 ft | 364 kts | 254° |
| 2026-04-16 12:19 | -22.30697 | -43.21204 | 17166 ft | 360 kts | 254° |
| 2026-04-16 12:19 | -22.31512 | -43.24658 | 16638 ft | 355 kts | 255° |
| 2026-04-16 12:20 | -22.32120 | -43.27237 | 16237 ft | 353 kts | 255° |
| 2026-04-16 12:20 | -22.32529 | -43.28968 | 15971 ft | 351 kts | 255° |
| 2026-04-16 12:20 | -22.33129 | -43.31518 | 15583 ft | 349 kts | 255° |
| 2026-04-16 12:20 | -22.33727 | -43.34054 | 15200 ft | 347 kts | 255° |
| 2026-04-16 12:21 | -22.34319 | -43.36572 | 14812 ft | 345 kts | 255° |
| 2026-04-16 12:21 | -22.34901 | -43.39045 | 14435 ft | 343 kts | 255° |
| 2026-04-16 12:21 | -22.35487 | -43.41539 | 14057 ft | 342 kts | 255° |
| 2026-04-16 12:21 | -22.36070 | -43.44025 | 13682 ft | 341 kts | 255° |
| 2026-04-16 12:22 | -22.36784 | -43.46452 | 13284 ft | 339 kts | 242° |
| 2026-04-16 12:22 | -22.38207 | -43.48465 | 12855 ft | 338 kts | 222° |
| 2026-04-16 12:22 | -22.40186 | -43.49841 | 12320 ft | 341 kts | 204° |
| 2026-04-16 12:22 | -22.42394 | -43.50777 | 11803 ft | 342 kts | 200° |
| 2026-04-16 12:23 | -22.44628 | -43.51670 | 11251 ft | 343 kts | 200° |
| 2026-04-16 12:23 | -22.46852 | -43.52560 | 10686 ft | 338 kts | 200° |
| 2026-04-16 12:23 | -22.48295 | -43.53151 | 10325 ft | 332 kts | 201° |
| 2026-04-16 12:23 | -22.50211 | -43.53948 | 9922 ft | 324 kts | 201° |
| 2026-04-16 12:24 | -22.51666 | -43.54557 | 9943 ft | 306 kts | 201° |
| 2026-04-16 12:24 | -22.53563 | -43.55351 | 9859 ft | 288 kts | 201° |
| 2026-04-16 12:24 | -22.55449 | -43.55926 | 9509 ft | 279 kts | 182° |
| 2026-04-16 12:24 | -22.57355 | -43.55641 | 9034 ft | 277 kts | 159° |
| 2026-04-16 12:25 | -22.59105 | -43.54781 | 8559 ft | 276 kts | 153° |
| 2026-04-16 12:25 | -22.60817 | -43.53859 | 8071 ft | 275 kts | 153° |
| 2026-04-16 12:25 | -22.62552 | -43.52931 | 7382 ft | 281 kts | 153° |
| 2026-04-16 12:25 | -22.64246 | -43.51851 | 6692 ft | 285 kts | 137° |
| 2026-04-16 12:26 | -22.65423 | -43.50333 | 6093 ft | 286 kts | 126° |
| 2026-04-16 12:26 | -22.66637 | -43.48566 | 5559 ft | 284 kts | 126° |
| 2026-04-16 12:26 | -22.67783 | -43.46856 | 5049 ft | 281 kts | 126° |
| 2026-04-16 12:26 | -22.68902 | -43.45154 | 4554 ft | 279 kts | 125° |
| 2026-04-16 12:27 | -22.70024 | -43.43441 | 4003 ft | 278 kts | 125° |
| 2026-04-16 12:27 | -22.71143 | -43.41734 | 3445 ft | 278 kts | 126° |
| 2026-04-16 12:27 | -22.72250 | -43.40049 | 3056 ft | 271 kts | 126° |
| 2026-04-16 12:27 | -22.73330 | -43.38406 | 2701 ft | 264 kts | 126° |
| 2026-04-16 12:28 | -22.74386 | -43.36799 | 2342 ft | 259 kts | 125° |
| 2026-04-16 12:28 | -22.75408 | -43.35245 | 1994 ft | 245 kts | 125° |
| 2026-04-16 12:28 | -22.76352 | -43.33808 | 1704 ft | 224 kts | 125° |
| 2026-04-16 12:28 | -22.77221 | -43.32486 | 1418 ft | 207 kts | 125° |
| 2026-04-16 12:29 | -22.78029 | -43.31258 | 1145 ft | 193 kts | 124° |
| 2026-04-16 12:29 | -22.78777 | -43.30120 | 920 ft | 177 kts | 124° |
| 2026-04-16 12:29 | -22.79454 | -43.29090 | 790 ft | 166 kts | 124° |
| 2026-04-16 12:29 | -22.80156 | -43.28022 | 1229 ft | 183 kts | 124° |
| 2026-04-16 12:30 | -22.80920 | -43.26859 | 1734 ft | 201 kts | 124° |
| 2026-04-16 12:30 | -22.81723 | -43.25492 | 1971 ft | 228 kts | 110° |
| 2026-04-16 12:30 | -22.81782 | -43.23757 | 2439 ft | 237 kts | 75° |
| 2026-04-16 12:30 | -22.81563 | -43.21986 | 3146 ft | 240 kts | 95° |
| 2026-04-16 12:31 | -22.81751 | -43.20201 | 3703 ft | 241 kts | 97° |
| 2026-04-16 12:31 | -22.81974 | -43.18382 | 3951 ft | 244 kts | 94° |
| 2026-04-16 12:31 | -22.81796 | -43.16559 | 3690 ft | 242 kts | 68° |
| 2026-04-16 12:31 | -22.80727 | -43.15200 | 3230 ft | 241 kts | 29° |
| 2026-04-16 12:32 | -22.79119 | -43.14892 | 3054 ft | 236 kts | 349° |
| 2026-04-16 12:32 | -22.77694 | -43.15739 | 3024 ft | 241 kts | 315° |
| 2026-04-16 12:32 | -22.76564 | -43.17114 | 2998 ft | 245 kts | 309° |
| 2026-04-16 12:32 | -22.75482 | -43.18521 | 2998 ft | 246 kts | 309° |
| 2026-04-16 12:33 | -22.74395 | -43.19947 | 2988 ft | 245 kts | 309° |
| 2026-04-16 12:33 | -22.73308 | -43.21375 | 2978 ft | 245 kts | 309° |
| 2026-04-16 12:33 | -22.72225 | -43.22801 | 2984 ft | 245 kts | 309° |
| 2026-04-16 12:33 | -22.71143 | -43.24226 | 2990 ft | 244 kts | 309° |
| 2026-04-16 12:34 | -22.70061 | -43.25651 | 2987 ft | 245 kts | 309° |
| 2026-04-16 12:34 | -22.68980 | -43.27075 | 2980 ft | 245 kts | 309° |
| 2026-04-16 12:34 | -22.67939 | -43.28534 | 2975 ft | 245 kts | 298° |
| 2026-04-16 12:34 | -22.67643 | -43.30290 | 2934 ft | 236 kts | 259° |
| 2026-04-16 12:35 | -22.68201 | -43.31891 | 2880 ft | 220 kts | 244° |
| 2026-04-16 12:35 | -22.68831 | -43.33354 | 2715 ft | 209 kts | 244° |
| 2026-04-16 12:35 | -22.69514 | -43.34685 | 2470 ft | 195 kts | 229° |
| 2026-04-16 12:35 | -22.70394 | -43.35722 | 2298 ft | 180 kts | 227° |
| 2026-04-16 12:36 | -22.71203 | -43.36680 | 2121 ft | 164 kts | 227° |
| 2026-04-16 12:36 | -22.72025 | -43.37477 | 1863 ft | 158 kts | 204° |
| 2026-04-16 12:36 | -22.73064 | -43.37405 | 1725 ft | 157 kts | 144° |
| 2026-04-16 12:36 | -22.73902 | -43.36648 | 1694 ft | 157 kts | 144° |
| 2026-04-16 12:37 | -22.74732 | -43.35911 | 1689 ft | 154 kts | 132° |
| 2026-04-16 12:37 | -22.75450 | -43.35050 | 1696 ft | 157 kts | 130° |
| 2026-04-16 12:37 | -22.76140 | -43.34112 | 1693 ft | 157 kts | 126° |
| 2026-04-16 12:37 | -22.76779 | -43.33158 | 1538 ft | 159 kts | 125° |
| 2026-04-16 12:38 | -22.77422 | -43.32181 | 1344 ft | 159 kts | 124° |
| 2026-04-16 12:38 | -22.78057 | -43.31214 | 1138 ft | 155 kts | 124° |
| 2026-04-16 12:38 | -22.78682 | -43.30265 | 931 ft | 155 kts | 124° |
| 2026-04-16 12:38 | -22.79303 | -43.29319 | 726 ft | 154 kts | 124° |
| 2026-04-16 12:39 | -22.79926 | -43.28372 | 526 ft | 154 kts | 124° |
| 2026-04-16 12:39 | -22.80550 | -43.27425 | 300 ft | 153 kts | 124° |
| 2026-04-16 12:39 | -22.81167 | -43.26487 | 104 ft | 152 kts | 125° |
| 2026-04-16 12:39 | -22.81763 | -43.25578 | 27 ft | 137 kts | 126° |
| 2026-04-16 12:40 | -22.82205 | -43.24914 | 26 ft | 78 kts | 125° |
| 2026-04-16 12:40 | -22.82414 | -43.24596 | 27 ft | 30 kts | 126° |
| 2026-04-16 12:40 | -22.82519 | -43.24437 | 26 ft | 17 kts | 126° |
| 2026-04-16 12:40 | -22.82585 | -43.24337 | 27 ft | 16 kts | 126° |
| 2026-04-16 12:41 | -22.82622 | -43.24238 | 28 ft | 12 kts | 74° |
| 2026-04-16 12:41 | -22.82561 | -43.24178 | 27 ft | 12 kts | 21° |
| 2026-04-16 12:41 | -22.82491 | -43.24211 | 27 ft | 12 kts | 307° |
| 2026-04-16 12:41 | -22.82443 | -43.24280 | 27 ft | 11 kts | 307° |
| 2026-04-16 12:42 | -22.82397 | -43.24349 | 29 ft | 11 kts | 303° |
| 2026-04-16 12:42 | -22.82355 | -43.24417 | 29 ft | 11 kts | 303° |
| 2026-04-16 12:42 | -22.82312 | -43.24482 | 29 ft | 11 kts | 307° |
| 2026-04-16 12:42 | -22.82260 | -43.24560 | 27 ft | 15 kts | 306° |
| 2026-04-16 12:43 | -22.82188 | -43.24668 | 25 ft | 19 kts | 306° |
| 2026-04-16 12:43 | -22.82081 | -43.24710 | 25 ft | 19 kts | 32° |
| 2026-04-16 12:43 | -22.81978 | -43.24630 | 29 ft | 18 kts | 35° |
| 2026-04-16 12:43 | -22.81862 | -43.24591 | 29 ft | 17 kts | 33° |
| 2026-04-16 12:44 | -22.81752 | -43.24564 | 28 ft | 17 kts | 352° |
| 2026-04-16 12:44 | -22.81644 | -43.24569 | 25 ft | 9 kts | 356° |
| 2026-04-16 12:44 | -22.81613 | -43.24571 | 25 ft | 0 kts | 356° |